sensor_id;sensor_type;location;lat;lon;timestamp;P1;durP1;ratioP1;P2;durP2;ratioP2
13879;SDS011;7010;48.200;16.332;2022-12-29T00:01:08;9.73;;;7.88;;
13879;SDS011;7010;48.200;16.332;2022-12-29T00:03:37;9.98;;;7.85;;
13879;SDS011;7010;48.200;16.332;2022-12-29T00:06:06;10.50;;;9.27;;
13879;SDS011;7010;48.200;16.332;2022-12-29T00:08:35;8.53;;;7.63;;
13879;SDS011;7010;48.200;16.332;2022-12-29T00:11:09;8.77;;;7.87;;
13879;SDS011;7010;48.200;16.332;2022-12-29T00:13:39;8.20;;;7.40;;
13879;SDS011;7010;48.200;16.332;2022-12-29T00:16:24;9.00;;;7.95;;
13879;SDS011;7010;48.200;16.332;2022-12-29T00:18:53;8.93;;;7.60;;
13879;SDS011;7010;48.200;16.332;2022-12-29T00:21:23;9.23;;;7.85;;
13879;SDS011;7010;48.200;16.332;2022-12-29T00:24:11;13.82;;;8.38;;
13879;SDS011;7010;48.200;16.332;2022-12-29T00:26:58;9.60;;;7.97;;
13879;SDS011;7010;48.200;16.332;2022-12-29T00:29:54;9.13;;;6.57;;
13879;SDS011;7010;48.200;16.332;2022-12-29T00:32:39;7.68;;;6.85;;
13879;SDS011;7010;48.200;16.332;2022-12-29T00:35:26;7.90;;;7.13;;
13879;SDS011;7010;48.200;16.332;2022-12-29T00:37:58;14.25;;;8.50;;
13879;SDS011;7010;48.200;16.332;2022-12-29T00:40:48;6.72;;;6.13;;
13879;SDS011;7010;48.200;16.332;2022-12-29T00:43:33;6.93;;;5.65;;
13879;SDS011;7010;48.200;16.332;2022-12-29T00:46:19;8.70;;;5.28;;
13879;SDS011;7010;48.200;16.332;2022-12-29T00:48:47;8.27;;;5.80;;
13879;SDS011;7010;48.200;16.332;2022-12-29T00:51:32;8.40;;;6.93;;
13879;SDS011;7010;48.200;16.332;2022-12-29T00:54:02;8.05;;;6.10;;
13879;SDS011;7010;48.200;16.332;2022-12-29T00:56:30;6.10;;;5.20;;
13879;SDS011;7010;48.200;16.332;2022-12-29T00:58:59;6.22;;;5.63;;
13879;SDS011;7010;48.200;16.332;2022-12-29T01:01:28;8.55;;;5.65;;
13879;SDS011;7010;48.200;16.332;2022-12-29T01:03:57;7.93;;;7.03;;
13879;SDS011;7010;48.200;16.332;2022-12-29T01:06:29;9.68;;;6.07;;
13879;SDS011;7010;48.200;16.332;2022-12-29T01:08:58;6.60;;;5.90;;
13879;SDS011;7010;48.200;16.332;2022-12-29T01:11:46;6.82;;;5.35;;
13879;SDS011;7010;48.200;16.332;2022-12-29T01:14:14;7.53;;;6.22;;
13879;SDS011;7010;48.200;16.332;2022-12-29T01:16:43;8.52;;;6.70;;
13879;SDS011;7010;48.200;16.332;2022-12-29T01:19:12;9.17;;;6.00;;
13879;SDS011;7010;48.200;16.332;2022-12-29T01:21:41;9.00;;;6.63;;
13879;SDS011;7010;48.200;16.332;2022-12-29T01:24:09;8.47;;;7.27;;
13879;SDS011;7010;48.200;16.332;2022-12-29T01:26:37;8.13;;;6.43;;
13879;SDS011;7010;48.200;16.332;2022-12-29T01:29:07;9.05;;;7.07;;
13879;SDS011;7010;48.200;16.332;2022-12-29T01:31:36;9.52;;;6.45;;
13879;SDS011;7010;48.200;16.332;2022-12-29T01:34:05;7.40;;;6.70;;
13879;SDS011;7010;48.200;16.332;2022-12-29T01:36:33;9.07;;;7.10;;
13879;SDS011;7010;48.200;16.332;2022-12-29T01:39:02;6.90;;;6.20;;
13879;SDS011;7010;48.200;16.332;2022-12-29T01:41:30;10.43;;;7.40;;
13879;SDS011;7010;48.200;16.332;2022-12-29T01:43:59;8.57;;;6.57;;
13879;SDS011;7010;48.200;16.332;2022-12-29T01:46:31;10.43;;;7.10;;
13879;SDS011;7010;48.200;16.332;2022-12-29T01:49:04;8.48;;;7.20;;
13879;SDS011;7010;48.200;16.332;2022-12-29T01:51:40;7.93;;;7.10;;
13879;SDS011;7010;48.200;16.332;2022-12-29T01:54:18;8.40;;;7.23;;
13879;SDS011;7010;48.200;16.332;2022-12-29T01:56:51;8.35;;;7.47;;
13879;SDS011;7010;48.200;16.332;2022-12-29T01:59:22;7.18;;;6.47;;
13879;SDS011;7010;48.200;16.332;2022-12-29T02:02:02;7.85;;;6.78;;
13879;SDS011;7010;48.200;16.332;2022-12-29T02:04:32;7.60;;;6.10;;
13879;SDS011;7010;48.200;16.332;2022-12-29T02:07:02;9.15;;;7.07;;
13879;SDS011;7010;48.200;16.332;2022-12-29T02:09:33;8.98;;;7.20;;
13879;SDS011;7010;48.200;16.332;2022-12-29T02:12:01;7.53;;;6.72;;
13879;SDS011;7010;48.200;16.332;2022-12-29T02:14:30;7.50;;;6.70;;
13879;SDS011;7010;48.200;16.332;2022-12-29T02:17:02;6.55;;;5.95;;
13879;SDS011;7010;48.200;16.332;2022-12-29T02:19:49;7.20;;;6.50;;
13879;SDS011;7010;48.200;16.332;2022-12-29T02:22:38;6.63;;;5.70;;
13879;SDS011;7010;48.200;16.332;2022-12-29T02:25:27;6.37;;;5.50;;
13879;SDS011;7010;48.200;16.332;2022-12-29T02:28:22;5.47;;;5.07;;
13879;SDS011;7010;48.200;16.332;2022-12-29T02:31:13;6.25;;;5.65;;
13879;SDS011;7010;48.200;16.332;2022-12-29T02:33:51;6.70;;;5.93;;
13879;SDS011;7010;48.200;16.332;2022-12-29T02:36:28;7.25;;;6.30;;
13879;SDS011;7010;48.200;16.332;2022-12-29T02:39:05;8.17;;;7.30;;
13879;SDS011;7010;48.200;16.332;2022-12-29T02:41:42;7.43;;;6.40;;
13879;SDS011;7010;48.200;16.332;2022-12-29T02:44:16;7.10;;;6.40;;
13879;SDS011;7010;48.200;16.332;2022-12-29T02:46:56;7.30;;;6.60;;
13879;SDS011;7010;48.200;16.332;2022-12-29T02:49:30;7.10;;;6.40;;
13879;SDS011;7010;48.200;16.332;2022-12-29T02:52:04;6.72;;;6.13;;
13879;SDS011;7010;48.200;16.332;2022-12-29T02:54:36;6.57;;;5.93;;
13879;SDS011;7010;48.200;16.332;2022-12-29T02:57:13;6.13;;;5.43;;
13879;SDS011;7010;48.200;16.332;2022-12-29T02:59:54;7.37;;;6.53;;
13879;SDS011;7010;48.200;16.332;2022-12-29T03:02:38;7.80;;;6.30;;
13879;SDS011;7010;48.200;16.332;2022-12-29T03:05:17;9.93;;;7.63;;
13879;SDS011;7010;48.200;16.332;2022-12-29T03:07:55;9.50;;;7.27;;
13879;SDS011;7010;48.200;16.332;2022-12-29T03:10:31;17.20;;;8.80;;
13879;SDS011;7010;48.200;16.332;2022-12-29T03:13:12;7.70;;;6.53;;
13879;SDS011;7010;48.200;16.332;2022-12-29T03:16:11;11.47;;;6.87;;
13879;SDS011;7010;48.200;16.332;2022-12-29T03:18:49;8.73;;;6.80;;
13879;SDS011;7010;48.200;16.332;2022-12-29T03:21:26;7.30;;;6.30;;
13879;SDS011;7010;48.200;16.332;2022-12-29T03:24:26;7.78;;;6.05;;
13879;SDS011;7010;48.200;16.332;2022-12-29T03:26:57;9.20;;;7.20;;
13879;SDS011;7010;48.200;16.332;2022-12-29T03:29:27;7.50;;;6.45;;
13879;SDS011;7010;48.200;16.332;2022-12-29T03:32:00;6.83;;;6.13;;
13879;SDS011;7010;48.200;16.332;2022-12-29T03:34:32;8.57;;;6.27;;
13879;SDS011;7010;48.200;16.332;2022-12-29T03:37:02;7.57;;;6.07;;
13879;SDS011;7010;48.200;16.332;2022-12-29T03:39:35;11.87;;;7.70;;
13879;SDS011;7010;48.200;16.332;2022-12-29T03:42:04;7.33;;;6.10;;
13879;SDS011;7010;48.200;16.332;2022-12-29T03:44:38;6.33;;;5.30;;
13879;SDS011;7010;48.200;16.332;2022-12-29T03:47:07;6.57;;;5.88;;
13879;SDS011;7010;48.200;16.332;2022-12-29T03:49:39;6.63;;;5.85;;
13879;SDS011;7010;48.200;16.332;2022-12-29T03:52:08;7.87;;;6.50;;
13879;SDS011;7010;48.200;16.332;2022-12-29T03:54:37;6.63;;;5.90;;
13879;SDS011;7010;48.200;16.332;2022-12-29T03:57:05;6.65;;;6.05;;
13879;SDS011;7010;48.200;16.332;2022-12-29T03:59:33;6.67;;;5.93;;
13879;SDS011;7010;48.200;16.332;2022-12-29T04:02:01;7.23;;;6.07;;
13879;SDS011;7010;48.200;16.332;2022-12-29T04:04:30;6.73;;;6.13;;
13879;SDS011;7010;48.200;16.332;2022-12-29T04:06:59;7.20;;;5.73;;
13879;SDS011;7010;48.200;16.332;2022-12-29T04:09:28;10.60;;;6.50;;
13879;SDS011;7010;48.200;16.332;2022-12-29T04:11:57;8.45;;;7.05;;
13879;SDS011;7010;48.200;16.332;2022-12-29T04:14:25;6.73;;;6.03;;
13879;SDS011;7010;48.200;16.332;2022-12-29T04:16:54;6.50;;;5.67;;
13879;SDS011;7010;48.200;16.332;2022-12-29T04:19:22;6.90;;;6.20;;
13879;SDS011;7010;48.200;16.332;2022-12-29T04:21:51;10.00;;;6.47;;
13879;SDS011;7010;48.200;16.332;2022-12-29T04:24:20;13.20;;;6.23;;
13879;SDS011;7010;48.200;16.332;2022-12-29T04:26:49;7.17;;;6.10;;
13879;SDS011;7010;48.200;16.332;2022-12-29T04:29:17;7.20;;;6.50;;
13879;SDS011;7010;48.200;16.332;2022-12-29T04:31:45;7.43;;;6.07;;
13879;SDS011;7010;48.200;16.332;2022-12-29T04:34:14;9.50;;;7.10;;
13879;SDS011;7010;48.200;16.332;2022-12-29T04:36:43;6.43;;;5.83;;
13879;SDS011;7010;48.200;16.332;2022-12-29T04:39:11;11.98;;;6.03;;
13879;SDS011;7010;48.200;16.332;2022-12-29T04:41:41;9.25;;;6.57;;
13879;SDS011;7010;48.200;16.332;2022-12-29T04:44:10;9.03;;;6.17;;
13879;SDS011;7010;48.200;16.332;2022-12-29T04:46:38;9.13;;;6.22;;
13879;SDS011;7010;48.200;16.332;2022-12-29T04:49:06;6.93;;;6.23;;
13879;SDS011;7010;48.200;16.332;2022-12-29T04:51:35;6.85;;;6.18;;
13879;SDS011;7010;48.200;16.332;2022-12-29T04:54:03;7.00;;;6.20;;
13879;SDS011;7010;48.200;16.332;2022-12-29T04:56:32;5.97;;;5.47;;
13879;SDS011;7010;48.200;16.332;2022-12-29T04:59:01;7.00;;;6.30;;
13879;SDS011;7010;48.200;16.332;2022-12-29T05:01:30;7.70;;;6.53;;
13879;SDS011;7010;48.200;16.332;2022-12-29T05:03:59;11.33;;;5.80;;
13879;SDS011;7010;48.200;16.332;2022-12-29T05:06:27;10.53;;;6.47;;
13879;SDS011;7010;48.200;16.332;2022-12-29T05:08:55;6.73;;;6.03;;
13879;SDS011;7010;48.200;16.332;2022-12-29T05:11:24;6.73;;;6.10;;
13879;SDS011;7010;48.200;16.332;2022-12-29T05:13:52;7.30;;;6.60;;
13879;SDS011;7010;48.200;16.332;2022-12-29T05:16:22;8.23;;;6.20;;
13879;SDS011;7010;48.200;16.332;2022-12-29T05:18:50;7.67;;;6.47;;
13879;SDS011;7010;48.200;16.332;2022-12-29T05:21:18;7.63;;;6.65;;
13879;SDS011;7010;48.200;16.332;2022-12-29T05:23:46;6.27;;;5.63;;
13879;SDS011;7010;48.200;16.332;2022-12-29T05:26:15;7.83;;;6.53;;
13879;SDS011;7010;48.200;16.332;2022-12-29T05:28:43;8.73;;;6.70;;
13879;SDS011;7010;48.200;16.332;2022-12-29T05:31:12;8.50;;;6.68;;
13879;SDS011;7010;48.200;16.332;2022-12-29T05:33:42;6.37;;;5.77;;
13879;SDS011;7010;48.200;16.332;2022-12-29T05:36:10;7.70;;;6.90;;
13879;SDS011;7010;48.200;16.332;2022-12-29T05:38:39;7.23;;;6.53;;
13879;SDS011;7010;48.200;16.332;2022-12-29T05:41:07;6.90;;;6.07;;
13879;SDS011;7010;48.200;16.332;2022-12-29T05:43:37;9.77;;;7.30;;
13879;SDS011;7010;48.200;16.332;2022-12-29T05:46:05;7.50;;;6.70;;
13879;SDS011;7010;48.200;16.332;2022-12-29T05:48:34;6.53;;;5.93;;
13879;SDS011;7010;48.200;16.332;2022-12-29T05:51:05;7.77;;;6.97;;
13879;SDS011;7010;48.200;16.332;2022-12-29T05:53:33;7.73;;;6.97;;
13879;SDS011;7010;48.200;16.332;2022-12-29T05:56:01;9.13;;;6.95;;
13879;SDS011;7010;48.200;16.332;2022-12-29T05:58:30;7.70;;;6.90;;
13879;SDS011;7010;48.200;16.332;2022-12-29T06:00:58;7.90;;;7.20;;
13879;SDS011;7010;48.200;16.332;2022-12-29T06:03:26;7.90;;;6.53;;
13879;SDS011;7010;48.200;16.332;2022-12-29T06:05:55;9.68;;;7.70;;
13879;SDS011;7010;48.200;16.332;2022-12-29T06:08:25;8.20;;;7.40;;
13879;SDS011;7010;48.200;16.332;2022-12-29T06:10:53;9.40;;;6.70;;
13879;SDS011;7010;48.200;16.332;2022-12-29T06:13:21;8.50;;;6.90;;
13879;SDS011;7010;48.200;16.332;2022-12-29T06:15:50;11.87;;;7.37;;
13879;SDS011;7010;48.200;16.332;2022-12-29T06:18:18;8.33;;;6.67;;
13879;SDS011;7010;48.200;16.332;2022-12-29T06:20:46;9.23;;;7.40;;
13879;SDS011;7010;48.200;16.332;2022-12-29T06:23:15;9.07;;;6.57;;
13879;SDS011;7010;48.200;16.332;2022-12-29T06:25:46;7.73;;;6.77;;
13879;SDS011;7010;48.200;16.332;2022-12-29T06:28:15;8.00;;;6.90;;
13879;SDS011;7010;48.200;16.332;2022-12-29T06:30:44;9.30;;;7.43;;
13879;SDS011;7010;48.200;16.332;2022-12-29T06:33:12;7.43;;;6.60;;
13879;SDS011;7010;48.200;16.332;2022-12-29T06:35:42;10.83;;;8.17;;
13879;SDS011;7010;48.200;16.332;2022-12-29T06:38:12;9.23;;;7.33;;
13879;SDS011;7010;48.200;16.332;2022-12-29T06:40:41;8.03;;;7.23;;
13879;SDS011;7010;48.200;16.332;2022-12-29T06:43:12;9.13;;;8.07;;
13879;SDS011;7010;48.200;16.332;2022-12-29T06:45:41;11.67;;;10.30;;
13879;SDS011;7010;48.200;16.332;2022-12-29T06:48:09;12.93;;;10.17;;
13879;SDS011;7010;48.200;16.332;2022-12-29T06:50:38;12.47;;;9.97;;
13879;SDS011;7010;48.200;16.332;2022-12-29T06:53:06;14.25;;;10.15;;
13879;SDS011;7010;48.200;16.332;2022-12-29T06:55:34;11.20;;;9.48;;
13879;SDS011;7010;48.200;16.332;2022-12-29T06:58:02;14.93;;;11.32;;
13879;SDS011;7010;48.200;16.332;2022-12-29T07:00:32;12.57;;;10.63;;
13879;SDS011;7010;48.200;16.332;2022-12-29T07:03:00;14.15;;;12.05;;
13879;SDS011;7010;48.200;16.332;2022-12-29T07:05:29;12.93;;;10.60;;
13879;SDS011;7010;48.200;16.332;2022-12-29T07:07:58;18.37;;;10.97;;
13879;SDS011;7010;48.200;16.332;2022-12-29T07:10:27;15.05;;;10.80;;
13879;SDS011;7010;48.200;16.332;2022-12-29T07:12:55;17.60;;;11.27;;
13879;SDS011;7010;48.200;16.332;2022-12-29T07:15:24;19.35;;;10.93;;
13879;SDS011;7010;48.200;16.332;2022-12-29T07:17:53;13.32;;;10.38;;
13879;SDS011;7010;48.200;16.332;2022-12-29T07:20:22;12.50;;;9.30;;
13879;SDS011;7010;48.200;16.332;2022-12-29T07:22:52;12.77;;;8.68;;
13879;SDS011;7010;48.200;16.332;2022-12-29T07:25:20;12.67;;;8.87;;
13879;SDS011;7010;48.200;16.332;2022-12-29T07:27:49;8.30;;;7.50;;
13879;SDS011;7010;48.200;16.332;2022-12-29T07:30:17;9.30;;;8.27;;
13879;SDS011;7010;48.200;16.332;2022-12-29T07:32:45;12.83;;;8.97;;
13879;SDS011;7010;48.200;16.332;2022-12-29T07:35:15;8.77;;;7.43;;
13879;SDS011;7010;48.200;16.332;2022-12-29T07:37:44;14.40;;;9.27;;
13879;SDS011;7010;48.200;16.332;2022-12-29T07:40:12;11.27;;;8.68;;
13879;SDS011;7010;48.200;16.332;2022-12-29T07:42:40;10.37;;;8.70;;
13879;SDS011;7010;48.200;16.332;2022-12-29T07:45:09;10.07;;;8.17;;
13879;SDS011;7010;48.200;16.332;2022-12-29T07:47:37;10.30;;;8.07;;
13879;SDS011;7010;48.200;16.332;2022-12-29T07:50:06;11.43;;;8.63;;
13879;SDS011;7010;48.200;16.332;2022-12-29T07:52:36;11.37;;;8.80;;
13879;SDS011;7010;48.200;16.332;2022-12-29T07:55:04;13.90;;;9.80;;
13879;SDS011;7010;48.200;16.332;2022-12-29T07:57:34;15.32;;;10.00;;
13879;SDS011;7010;48.200;16.332;2022-12-29T08:00:02;21.53;;;11.57;;
13879;SDS011;7010;48.200;16.332;2022-12-29T08:02:31;13.98;;;11.45;;
13879;SDS011;7010;48.200;16.332;2022-12-29T08:04:59;15.98;;;12.43;;
13879;SDS011;7010;48.200;16.332;2022-12-29T08:07:27;17.73;;;12.57;;
13879;SDS011;7010;48.200;16.332;2022-12-29T08:09:57;16.73;;;11.82;;
13879;SDS011;7010;48.200;16.332;2022-12-29T08:12:25;20.87;;;13.27;;
13879;SDS011;7010;48.200;16.332;2022-12-29T08:14:53;21.73;;;14.00;;
13879;SDS011;7010;48.200;16.332;2022-12-29T08:17:22;18.02;;;13.18;;
13879;SDS011;7010;48.200;16.332;2022-12-29T08:19:50;25.93;;;14.17;;
13879;SDS011;7010;48.200;16.332;2022-12-29T08:22:18;18.60;;;13.37;;
13879;SDS011;7010;48.200;16.332;2022-12-29T08:24:46;19.60;;;14.20;;
13879;SDS011;7010;48.200;16.332;2022-12-29T08:27:16;15.80;;;12.53;;
13879;SDS011;7010;48.200;16.332;2022-12-29T08:29:46;17.10;;;14.17;;
13879;SDS011;7010;48.200;16.332;2022-12-29T08:32:15;24.43;;;13.23;;
13879;SDS011;7010;48.200;16.332;2022-12-29T08:34:46;17.97;;;14.80;;
13879;SDS011;7010;48.200;16.332;2022-12-29T08:37:14;18.52;;;13.32;;
13879;SDS011;7010;48.200;16.332;2022-12-29T08:39:42;17.00;;;13.93;;
13879;SDS011;7010;48.200;16.332;2022-12-29T08:42:11;19.20;;;14.00;;
13879;SDS011;7010;48.200;16.332;2022-12-29T08:44:41;20.33;;;12.70;;
13879;SDS011;7010;48.200;16.332;2022-12-29T08:47:09;15.83;;;12.23;;
13879;SDS011;7010;48.200;16.332;2022-12-29T08:49:38;19.50;;;14.27;;
13879;SDS011;7010;48.200;16.332;2022-12-29T08:52:07;26.20;;;13.80;;
13879;SDS011;7010;48.200;16.332;2022-12-29T08:54:35;15.20;;;12.63;;
13879;SDS011;7010;48.200;16.332;2022-12-29T08:57:04;18.93;;;14.63;;
13879;SDS011;7010;48.200;16.332;2022-12-29T08:59:32;23.53;;;16.30;;
13879;SDS011;7010;48.200;16.332;2022-12-29T09:02:02;21.33;;;13.77;;
13879;SDS011;7010;48.200;16.332;2022-12-29T09:04:30;23.43;;;16.00;;
13879;SDS011;7010;48.200;16.332;2022-12-29T09:06:59;20.57;;;15.27;;
13879;SDS011;7010;48.200;16.332;2022-12-29T09:09:27;18.15;;;14.75;;
13879;SDS011;7010;48.200;16.332;2022-12-29T09:11:55;25.33;;;15.60;;
13879;SDS011;7010;48.200;16.332;2022-12-29T09:14:23;21.85;;;15.27;;
13879;SDS011;7010;48.200;16.332;2022-12-29T09:16:52;23.67;;;16.15;;
13879;SDS011;7010;48.200;16.332;2022-12-29T09:19:39;17.35;;;12.77;;
13879;SDS011;7010;48.200;16.332;2022-12-29T09:22:08;15.25;;;13.65;;
13879;SDS011;7010;48.200;16.332;2022-12-29T09:24:36;18.48;;;13.00;;
13879;SDS011;7010;48.200;16.332;2022-12-29T09:27:04;17.42;;;12.27;;
13879;SDS011;7010;48.200;16.332;2022-12-29T09:29:33;20.50;;;14.35;;
13879;SDS011;7010;48.200;16.332;2022-12-29T09:32:01;15.32;;;12.57;;
13879;SDS011;7010;48.200;16.332;2022-12-29T09:34:33;18.70;;;12.73;;
13879;SDS011;7010;48.200;16.332;2022-12-29T09:37:03;16.75;;;12.73;;
13879;SDS011;7010;48.200;16.332;2022-12-29T09:39:31;18.08;;;14.70;;
13879;SDS011;7010;48.200;16.332;2022-12-29T09:42:01;20.33;;;14.52;;
13879;SDS011;7010;48.200;16.332;2022-12-29T09:44:42;16.95;;;14.85;;
13879;SDS011;7010;48.200;16.332;2022-12-29T09:47:16;18.27;;;14.40;;
13879;SDS011;7010;48.200;16.332;2022-12-29T09:49:50;19.75;;;13.75;;
13879;SDS011;7010;48.200;16.332;2022-12-29T09:52:24;14.82;;;13.00;;
13879;SDS011;7010;48.200;16.332;2022-12-29T09:54:56;14.77;;;12.93;;
13879;SDS011;7010;48.200;16.332;2022-12-29T09:57:35;19.40;;;14.05;;
13879;SDS011;7010;48.200;16.332;2022-12-29T10:00:10;14.25;;;10.93;;
13879;SDS011;7010;48.200;16.332;2022-12-29T10:02:42;19.35;;;14.85;;
13879;SDS011;7010;48.200;16.332;2022-12-29T10:05:20;15.27;;;12.80;;
13879;SDS011;7010;48.200;16.332;2022-12-29T10:08:02;17.52;;;13.07;;
13879;SDS011;7010;48.200;16.332;2022-12-29T10:10:43;20.02;;;14.77;;
13879;SDS011;7010;48.200;16.332;2022-12-29T10:13:25;17.13;;;13.07;;
13879;SDS011;7010;48.200;16.332;2022-12-29T10:16:02;16.55;;;13.18;;
13879;SDS011;7010;48.200;16.332;2022-12-29T10:18:46;18.48;;;12.75;;
13879;SDS011;7010;48.200;16.332;2022-12-29T10:21:28;18.67;;;13.48;;
13879;SDS011;7010;48.200;16.332;2022-12-29T10:24:09;18.55;;;13.88;;
13879;SDS011;7010;48.200;16.332;2022-12-29T10:26:40;17.77;;;13.70;;
13879;SDS011;7010;48.200;16.332;2022-12-29T10:29:13;17.10;;;13.57;;
13879;SDS011;7010;48.200;16.332;2022-12-29T10:31:44;22.20;;;15.57;;
13879;SDS011;7010;48.200;16.332;2022-12-29T10:34:19;19.80;;;14.80;;
13879;SDS011;7010;48.200;16.332;2022-12-29T10:36:52;20.60;;;16.08;;
13879;SDS011;7010;48.200;16.332;2022-12-29T10:39:28;17.65;;;15.30;;
13879;SDS011;7010;48.200;16.332;2022-12-29T10:42:03;15.50;;;13.60;;
13879;SDS011;7010;48.200;16.332;2022-12-29T10:44:37;18.63;;;13.90;;
13879;SDS011;7010;48.200;16.332;2022-12-29T10:47:06;20.77;;;15.07;;
13879;SDS011;7010;48.200;16.332;2022-12-29T10:49:39;24.90;;;15.20;;
13879;SDS011;7010;48.200;16.332;2022-12-29T10:52:10;21.50;;;16.30;;
13879;SDS011;7010;48.200;16.332;2022-12-29T10:54:44;20.85;;;16.17;;
13879;SDS011;7010;48.200;16.332;2022-12-29T10:57:18;26.38;;;16.38;;
13879;SDS011;7010;48.200;16.332;2022-12-29T10:59:53;20.80;;;15.55;;
13879;SDS011;7010;48.200;16.332;2022-12-29T11:05:23;24.13;;;16.65;;
13879;SDS011;7010;48.200;16.332;2022-12-29T11:08:01;15.95;;;14.23;;
13879;SDS011;7010;48.200;16.332;2022-12-29T11:10:36;19.73;;;15.10;;
13879;SDS011;7010;48.200;16.332;2022-12-29T11:13:11;17.40;;;14.50;;
13879;SDS011;7010;48.200;16.332;2022-12-29T11:15:42;17.60;;;15.38;;
13879;SDS011;7010;48.200;16.332;2022-12-29T11:18:21;18.35;;;14.73;;
13879;SDS011;7010;48.200;16.332;2022-12-29T11:20:52;26.13;;;16.33;;
13879;SDS011;7010;48.200;16.332;2022-12-29T11:23:24;24.65;;;17.02;;
13879;SDS011;7010;48.200;16.332;2022-12-29T11:29:16;21.38;;;16.27;;
13879;SDS011;7010;48.200;16.332;2022-12-29T11:31:49;16.67;;;14.73;;
13879;SDS011;7010;48.200;16.332;2022-12-29T11:34:19;25.23;;;16.35;;
13879;SDS011;7010;48.200;16.332;2022-12-29T11:36:50;18.15;;;15.23;;
13879;SDS011;7010;48.200;16.332;2022-12-29T11:39:25;16.83;;;15.07;;
13879;SDS011;7010;48.200;16.332;2022-12-29T11:42:01;21.80;;;15.82;;
13879;SDS011;7010;48.200;16.332;2022-12-29T11:44:32;18.98;;;15.23;;
13879;SDS011;7010;48.200;16.332;2022-12-29T11:47:04;18.48;;;15.98;;
13879;SDS011;7010;48.200;16.332;2022-12-29T11:49:35;22.73;;;16.27;;
13879;SDS011;7010;48.200;16.332;2022-12-29T11:52:03;20.17;;;16.23;;
13879;SDS011;7010;48.200;16.332;2022-12-29T11:54:33;21.52;;;16.50;;
13879;SDS011;7010;48.200;16.332;2022-12-29T11:57:12;26.42;;;16.23;;
13879;SDS011;7010;48.200;16.332;2022-12-29T11:59:42;17.75;;;14.30;;
13879;SDS011;7010;48.200;16.332;2022-12-29T12:02:33;19.75;;;15.80;;
13879;SDS011;7010;48.200;16.332;2022-12-29T12:05:22;24.48;;;17.42;;
13879;SDS011;7010;48.200;16.332;2022-12-29T12:07:57;25.40;;;16.63;;
13879;SDS011;7010;48.200;16.332;2022-12-29T12:10:31;24.52;;;16.15;;
13879;SDS011;7010;48.200;16.332;2022-12-29T12:13:08;19.77;;;17.60;;
13879;SDS011;7010;48.200;16.332;2022-12-29T12:15:47;26.75;;;17.98;;
13879;SDS011;7010;48.200;16.332;2022-12-29T12:18:25;24.67;;;17.52;;
13879;SDS011;7010;48.200;16.332;2022-12-29T12:21:05;27.88;;;18.98;;
13879;SDS011;7010;48.200;16.332;2022-12-29T12:23:43;24.98;;;17.90;;
13879;SDS011;7010;48.200;16.332;2022-12-29T12:26:34;28.60;;;19.17;;
13879;SDS011;7010;48.200;16.332;2022-12-29T12:29:10;24.50;;;17.60;;
13879;SDS011;7010;48.200;16.332;2022-12-29T12:31:45;24.92;;;17.95;;
13879;SDS011;7010;48.200;16.332;2022-12-29T12:34:18;24.80;;;18.27;;
13879;SDS011;7010;48.200;16.332;2022-12-29T12:39:45;28.45;;;19.63;;
13879;SDS011;7010;48.200;16.332;2022-12-29T12:42:27;20.73;;;17.73;;
13879;SDS011;7010;48.200;16.332;2022-12-29T12:45:11;20.83;;;16.67;;
13879;SDS011;7010;48.200;16.332;2022-12-29T12:48:00;28.13;;;18.63;;
13879;SDS011;7010;48.200;16.332;2022-12-29T12:50:43;20.45;;;17.05;;
13879;SDS011;7010;48.200;16.332;2022-12-29T12:53:23;26.63;;;18.38;;
13879;SDS011;7010;48.200;16.332;2022-12-29T12:56:20;21.70;;;17.58;;
13879;SDS011;7010;48.200;16.332;2022-12-29T12:59:03;21.85;;;17.77;;
13879;SDS011;7010;48.200;16.332;2022-12-29T13:01:42;24.15;;;18.85;;
13879;SDS011;7010;48.200;16.332;2022-12-29T13:07:18;19.15;;;16.15;;
13879;SDS011;7010;48.200;16.332;2022-12-29T13:10:00;26.67;;;17.95;;
13879;SDS011;7010;48.200;16.332;2022-12-29T13:12:46;24.98;;;18.63;;
13879;SDS011;7010;48.200;16.332;2022-12-29T13:15:35;27.90;;;19.10;;
13879;SDS011;7010;48.200;16.332;2022-12-29T13:18:14;22.17;;;18.10;;
13879;SDS011;7010;48.200;16.332;2022-12-29T13:20:51;29.85;;;18.67;;
13879;SDS011;7010;48.200;16.332;2022-12-29T13:23:24;22.48;;;16.50;;
13879;SDS011;7010;48.200;16.332;2022-12-29T13:26:00;21.85;;;17.58;;
13879;SDS011;7010;48.200;16.332;2022-12-29T13:28:37;25.77;;;19.58;;
13879;SDS011;7010;48.200;16.332;2022-12-29T13:31:18;21.98;;;18.23;;
13879;SDS011;7010;48.200;16.332;2022-12-29T13:33:53;24.88;;;19.48;;
13879;SDS011;7010;48.200;16.332;2022-12-29T13:36:29;24.52;;;18.05;;
13879;SDS011;7010;48.200;16.332;2022-12-29T13:39:05;23.75;;;18.48;;
13879;SDS011;7010;48.200;16.332;2022-12-29T13:41:46;27.48;;;20.25;;
13879;SDS011;7010;48.200;16.332;2022-12-29T13:44:18;26.20;;;19.77;;
13879;SDS011;7010;48.200;16.332;2022-12-29T13:46:51;21.38;;;18.45;;
13879;SDS011;7010;48.200;16.332;2022-12-29T13:49:22;23.98;;;17.05;;
13879;SDS011;7010;48.200;16.332;2022-12-29T13:51:51;26.95;;;18.85;;
13879;SDS011;7010;48.200;16.332;2022-12-29T13:54:25;23.48;;;18.27;;
13879;SDS011;7010;48.200;16.332;2022-12-29T13:57:05;24.05;;;18.40;;
13879;SDS011;7010;48.200;16.332;2022-12-29T13:59:40;24.42;;;19.58;;
13879;SDS011;7010;48.200;16.332;2022-12-29T14:02:25;22.48;;;19.17;;
13879;SDS011;7010;48.200;16.332;2022-12-29T14:05:01;22.00;;;18.60;;
13879;SDS011;7010;48.200;16.332;2022-12-29T14:07:35;23.17;;;18.42;;
13879;SDS011;7010;48.200;16.332;2022-12-29T14:10:05;21.27;;;17.98;;
13879;SDS011;7010;48.200;16.332;2022-12-29T14:12:35;21.48;;;17.58;;
13879;SDS011;7010;48.200;16.332;2022-12-29T14:15:19;31.98;;;19.45;;
13879;SDS011;7010;48.200;16.332;2022-12-29T14:18:01;31.08;;;18.60;;
13879;SDS011;7010;48.200;16.332;2022-12-29T14:20:33;22.45;;;18.33;;
13879;SDS011;7010;48.200;16.332;2022-12-29T14:23:14;22.50;;;19.27;;
13879;SDS011;7010;48.200;16.332;2022-12-29T14:25:52;21.88;;;17.50;;
13879;SDS011;7010;48.200;16.332;2022-12-29T14:28:24;24.25;;;18.45;;
13879;SDS011;7010;48.200;16.332;2022-12-29T14:30:54;25.65;;;19.27;;
13879;SDS011;7010;48.200;16.332;2022-12-29T14:33:28;27.25;;;20.25;;
13879;SDS011;7010;48.200;16.332;2022-12-29T14:38:51;27.70;;;20.33;;
13879;SDS011;7010;48.200;16.332;2022-12-29T14:41:29;24.55;;;18.73;;
13879;SDS011;7010;48.200;16.332;2022-12-29T14:44:01;21.75;;;18.02;;
13879;SDS011;7010;48.200;16.332;2022-12-29T14:46:46;21.83;;;19.50;;
13879;SDS011;7010;48.200;16.332;2022-12-29T14:49:21;21.38;;;18.85;;
13879;SDS011;7010;48.200;16.332;2022-12-29T14:51:54;24.63;;;19.27;;
13879;SDS011;7010;48.200;16.332;2022-12-29T14:57:27;21.60;;;18.73;;
13879;SDS011;7010;48.200;16.332;2022-12-29T15:00:02;27.75;;;18.92;;
13879;SDS011;7010;48.200;16.332;2022-12-29T15:02:36;21.95;;;18.73;;
13879;SDS011;7010;48.200;16.332;2022-12-29T15:05:22;24.52;;;19.35;;
13879;SDS011;7010;48.200;16.332;2022-12-29T15:07:57;20.05;;;17.88;;
13879;SDS011;7010;48.200;16.332;2022-12-29T15:10:27;23.80;;;19.27;;
13879;SDS011;7010;48.200;16.332;2022-12-29T15:13:03;26.98;;;18.50;;
13879;SDS011;7010;48.200;16.332;2022-12-29T15:15:36;25.77;;;20.15;;
13879;SDS011;7010;48.200;16.332;2022-12-29T15:18:12;24.92;;;19.33;;
13879;SDS011;7010;48.200;16.332;2022-12-29T15:20:42;22.58;;;16.63;;
13879;SDS011;7010;48.200;16.332;2022-12-29T15:23:12;23.63;;;18.50;;
13879;SDS011;7010;48.200;16.332;2022-12-29T15:25:45;23.38;;;19.15;;